sensor_id;sensor_type;location;lat;lon;timestamp;P1;durP1;ratioP1;P2;durP2;ratioP2
41689;SDS011;27372;42.658;23.256;2023-05-14T00:01:18;9.05;;;3.92;;
41689;SDS011;27372;42.658;23.256;2023-05-14T00:03:46;7.53;;;3.83;;
41689;SDS011;27372;42.658;23.256;2023-05-14T00:06:15;9.17;;;4.33;;
41689;SDS011;27372;42.658;23.256;2023-05-14T00:08:40;10.52;;;4.15;;
41689;SDS011;27372;42.658;23.256;2023-05-14T00:11:08;9.23;;;4.63;;
41689;SDS011;27372;42.658;23.256;2023-05-14T00:13:34;8.05;;;4.40;;
41689;SDS011;27372;42.658;23.256;2023-05-14T00:16:00;8.50;;;4.75;;
41689;SDS011;27372;42.658;23.256;2023-05-14T00:18:25;9.27;;;4.80;;
41689;SDS011;27372;42.658;23.256;2023-05-14T00:20:51;11.23;;;5.10;;
41689;SDS011;27372;42.658;23.256;2023-05-14T00:23:21;7.15;;;4.68;;
41689;SDS011;27372;42.658;23.256;2023-05-14T00:25:47;8.05;;;4.60;;
41689;SDS011;27372;42.658;23.256;2023-05-14T00:28:12;8.88;;;4.45;;
41689;SDS011;27372;42.658;23.256;2023-05-14T00:30:37;11.57;;;5.13;;
41689;SDS011;27372;42.658;23.256;2023-05-14T00:33:04;6.95;;;4.53;;
41689;SDS011;27372;42.658;23.256;2023-05-14T00:35:30;8.23;;;3.80;;
41689;SDS011;27372;42.658;23.256;2023-05-14T00:37:55;8.50;;;4.43;;
41689;SDS011;27372;42.658;23.256;2023-05-14T00:40:22;10.30;;;4.18;;
41689;SDS011;27372;42.658;23.256;2023-05-14T00:42:50;8.13;;;4.20;;
41689;SDS011;27372;42.658;23.256;2023-05-14T00:45:16;9.45;;;4.50;;
41689;SDS011;27372;42.658;23.256;2023-05-14T00:47:44;9.43;;;5.13;;
41689;SDS011;27372;42.658;23.256;2023-05-14T00:50:13;9.05;;;4.68;;
41689;SDS011;27372;42.658;23.256;2023-05-14T00:52:42;9.38;;;4.32;;
41689;SDS011;27372;42.658;23.256;2023-05-14T00:55:08;9.30;;;4.90;;
41689;SDS011;27372;42.658;23.256;2023-05-14T00:57:36;9.48;;;4.80;;
41689;SDS011;27372;42.658;23.256;2023-05-14T01:00:02;9.82;;;4.47;;
41689;SDS011;27372;42.658;23.256;2023-05-14T01:02:28;8.10;;;4.70;;
41689;SDS011;27372;42.658;23.256;2023-05-14T01:04:57;6.38;;;4.43;;
41689;SDS011;27372;42.658;23.256;2023-05-14T01:07:30;6.57;;;4.57;;
41689;SDS011;27372;42.658;23.256;2023-05-14T01:13:24;5.38;;;4.20;;
41689;SDS011;27372;42.658;23.256;2023-05-14T01:15:54;9.60;;;4.85;;
41689;SDS011;27372;42.658;23.256;2023-05-14T01:18:21;11.38;;;4.95;;
41689;SDS011;27372;42.658;23.256;2023-05-14T01:20:49;7.35;;;3.92;;
41689;SDS011;27372;42.658;23.256;2023-05-14T01:23:16;6.65;;;4.28;;
41689;SDS011;27372;42.658;23.256;2023-05-14T01:25:41;7.55;;;3.72;;
41689;SDS011;27372;42.658;23.256;2023-05-14T01:28:17;6.85;;;3.88;;
41689;SDS011;27372;42.658;23.256;2023-05-14T01:30:52;4.15;;;3.47;;
41689;SDS011;27372;42.658;23.256;2023-05-14T01:33:26;5.40;;;3.70;;
41689;SDS011;27372;42.658;23.256;2023-05-14T01:35:53;5.18;;;3.53;;
41689;SDS011;27372;42.658;23.256;2023-05-14T01:38:20;4.85;;;2.95;;
41689;SDS011;27372;42.658;23.256;2023-05-14T01:40:46;5.70;;;3.55;;
41689;SDS011;27372;42.658;23.256;2023-05-14T01:43:13;5.97;;;3.28;;
41689;SDS011;27372;42.658;23.256;2023-05-14T01:45:40;4.72;;;3.40;;
41689;SDS011;27372;42.658;23.256;2023-05-14T01:48:08;5.03;;;3.40;;
41689;SDS011;27372;42.658;23.256;2023-05-14T01:50:40;5.72;;;3.20;;
41689;SDS011;27372;42.658;23.256;2023-05-14T01:53:05;4.63;;;3.38;;
41689;SDS011;27372;42.658;23.256;2023-05-14T01:55:31;5.32;;;3.42;;
41689;SDS011;27372;42.658;23.256;2023-05-14T01:57:56;7.30;;;3.67;;
41689;SDS011;27372;42.658;23.256;2023-05-14T02:00:25;4.43;;;3.20;;
41689;SDS011;27372;42.658;23.256;2023-05-14T02:02:50;4.82;;;3.42;;
41689;SDS011;27372;42.658;23.256;2023-05-14T02:05:16;4.88;;;3.28;;
41689;SDS011;27372;42.658;23.256;2023-05-14T02:07:41;6.22;;;3.35;;
41689;SDS011;27372;42.658;23.256;2023-05-14T02:10:07;4.85;;;2.97;;
41689;SDS011;27372;42.658;23.256;2023-05-14T02:12:32;5.30;;;3.20;;
41689;SDS011;27372;42.658;23.256;2023-05-14T02:15:01;4.05;;;3.13;;
41689;SDS011;27372;42.658;23.256;2023-05-14T02:17:27;4.30;;;2.97;;
41689;SDS011;27372;42.658;23.256;2023-05-14T02:19:55;4.57;;;3.20;;
41689;SDS011;27372;42.658;23.256;2023-05-14T02:22:21;5.50;;;3.25;;
41689;SDS011;27372;42.658;23.256;2023-05-14T02:24:46;4.90;;;3.30;;
41689;SDS011;27372;42.658;23.256;2023-05-14T02:27:13;6.68;;;3.35;;
41689;SDS011;27372;42.658;23.256;2023-05-14T02:29:39;4.97;;;3.08;;
41689;SDS011;27372;42.658;23.256;2023-05-14T02:32:04;6.00;;;3.25;;
41689;SDS011;27372;42.658;23.256;2023-05-14T02:34:30;3.85;;;3.00;;
41689;SDS011;27372;42.658;23.256;2023-05-14T02:36:58;4.68;;;3.30;;
41689;SDS011;27372;42.658;23.256;2023-05-14T02:39:23;3.67;;;3.00;;
41689;SDS011;27372;42.658;23.256;2023-05-14T02:41:54;8.80;;;3.60;;
41689;SDS011;27372;42.658;23.256;2023-05-14T02:44:19;4.80;;;3.20;;
41689;SDS011;27372;42.658;23.256;2023-05-14T02:46:45;4.72;;;3.50;;
41689;SDS011;27372;42.658;23.256;2023-05-14T02:49:10;5.40;;;3.50;;
41689;SDS011;27372;42.658;23.256;2023-05-14T02:51:36;6.13;;;3.50;;
41689;SDS011;27372;42.658;23.256;2023-05-14T02:54:01;7.13;;;3.80;;
41689;SDS011;27372;42.658;23.256;2023-05-14T02:56:29;9.73;;;4.18;;
41689;SDS011;27372;42.658;23.256;2023-05-14T02:58:55;6.50;;;4.07;;
41689;SDS011;27372;42.658;23.256;2023-05-14T03:01:20;5.90;;;4.40;;
41689;SDS011;27372;42.658;23.256;2023-05-14T03:03:46;6.93;;;4.20;;
41689;SDS011;27372;42.658;23.256;2023-05-14T03:06:14;8.40;;;4.43;;
41689;SDS011;27372;42.658;23.256;2023-05-14T03:08:39;8.27;;;4.28;;
41689;SDS011;27372;42.658;23.256;2023-05-14T03:11:05;5.40;;;4.10;;
41689;SDS011;27372;42.658;23.256;2023-05-14T03:13:31;5.25;;;3.60;;
41689;SDS011;27372;42.658;23.256;2023-05-14T03:15:56;3.90;;;3.30;;
41689;SDS011;27372;42.658;23.256;2023-05-14T03:18:24;5.83;;;3.87;;
41689;SDS011;27372;42.658;23.256;2023-05-14T03:20:52;9.30;;;4.03;;
41689;SDS011;27372;42.658;23.256;2023-05-14T03:23:17;6.75;;;4.20;;
41689;SDS011;27372;42.658;23.256;2023-05-14T03:25:42;5.97;;;3.92;;
41689;SDS011;27372;42.658;23.256;2023-05-14T03:28:08;7.53;;;4.30;;
41689;SDS011;27372;42.658;23.256;2023-05-14T03:30:36;5.43;;;3.70;;
41689;SDS011;27372;42.658;23.256;2023-05-14T03:33:04;5.22;;;3.55;;
41689;SDS011;27372;42.658;23.256;2023-05-14T03:35:30;5.80;;;3.35;;
41689;SDS011;27372;42.658;23.256;2023-05-14T03:37:55;9.52;;;3.70;;
41689;SDS011;27372;42.658;23.256;2023-05-14T03:40:23;4.55;;;3.13;;
41689;SDS011;27372;42.658;23.256;2023-05-14T03:42:48;7.03;;;3.60;;
41689;SDS011;27372;42.658;23.256;2023-05-14T03:45:14;5.93;;;3.60;;
41689;SDS011;27372;42.658;23.256;2023-05-14T03:47:43;6.53;;;3.37;;
41689;SDS011;27372;42.658;23.256;2023-05-14T03:50:08;5.95;;;3.75;;
41689;SDS011;27372;42.658;23.256;2023-05-14T03:52:33;4.53;;;3.72;;
41689;SDS011;27372;42.658;23.256;2023-05-14T03:54:59;4.60;;;3.70;;
41689;SDS011;27372;42.658;23.256;2023-05-14T03:57:24;4.55;;;3.50;;
41689;SDS011;27372;42.658;23.256;2023-05-14T03:59:53;4.60;;;3.60;;
41689;SDS011;27372;42.658;23.256;2023-05-14T04:02:18;5.75;;;3.70;;
41689;SDS011;27372;42.658;23.256;2023-05-14T04:04:43;4.97;;;3.70;;
41689;SDS011;27372;42.658;23.256;2023-05-14T04:07:09;6.18;;;3.72;;
41689;SDS011;27372;42.658;23.256;2023-05-14T04:09:37;4.97;;;3.67;;
41689;SDS011;27372;42.658;23.256;2023-05-14T04:12:06;5.57;;;4.00;;
41689;SDS011;27372;42.658;23.256;2023-05-14T04:14:32;8.20;;;3.95;;
41689;SDS011;27372;42.658;23.256;2023-05-14T04:16:57;5.90;;;3.97;;
41689;SDS011;27372;42.658;23.256;2023-05-14T04:19:22;5.43;;;4.15;;
41689;SDS011;27372;42.658;23.256;2023-05-14T04:21:51;7.13;;;4.38;;
41689;SDS011;27372;42.658;23.256;2023-05-14T04:24:16;5.43;;;4.10;;
41689;SDS011;27372;42.658;23.256;2023-05-14T04:26:41;5.13;;;4.18;;
41689;SDS011;27372;42.658;23.256;2023-05-14T04:29:07;5.95;;;4.47;;
41689;SDS011;27372;42.658;23.256;2023-05-14T04:31:32;5.75;;;4.45;;
41689;SDS011;27372;42.658;23.256;2023-05-14T04:34:00;7.67;;;4.40;;
41689;SDS011;27372;42.658;23.256;2023-05-14T04:36:26;9.38;;;4.85;;
41689;SDS011;27372;42.658;23.256;2023-05-14T04:38:51;6.78;;;4.85;;
41689;SDS011;27372;42.658;23.256;2023-05-14T04:41:16;12.05;;;6.18;;
41689;SDS011;27372;42.658;23.256;2023-05-14T04:43:42;11.18;;;7.60;;
41689;SDS011;27372;42.658;23.256;2023-05-14T04:46:10;10.65;;;7.50;;
41689;SDS011;27372;42.658;23.256;2023-05-14T04:48:36;11.10;;;7.10;;
41689;SDS011;27372;42.658;23.256;2023-05-14T04:51:01;8.07;;;5.90;;
41689;SDS011;27372;42.658;23.256;2023-05-14T04:53:26;10.95;;;8.07;;
41689;SDS011;27372;42.658;23.256;2023-05-14T04:55:54;23.45;;;13.20;;
41689;SDS011;27372;42.658;23.256;2023-05-14T04:58:23;21.58;;;12.00;;
41689;SDS011;27372;42.658;23.256;2023-05-14T05:00:48;15.82;;;9.80;;
41689;SDS011;27372;42.658;23.256;2023-05-14T05:03:14;10.40;;;7.10;;
41689;SDS011;27372;42.658;23.256;2023-05-14T05:05:39;9.05;;;6.28;;
41689;SDS011;27372;42.658;23.256;2023-05-14T05:08:07;9.35;;;5.80;;
41689;SDS011;27372;42.658;23.256;2023-05-14T05:10:33;10.00;;;5.50;;
41689;SDS011;27372;42.658;23.256;2023-05-14T05:12:58;5.93;;;5.00;;
41689;SDS011;27372;42.658;23.256;2023-05-14T05:15:26;7.63;;;6.03;;
41689;SDS011;27372;42.658;23.256;2023-05-14T05:17:55;10.02;;;5.80;;
41689;SDS011;27372;42.658;23.256;2023-05-14T05:20:20;6.00;;;5.20;;
41689;SDS011;27372;42.658;23.256;2023-05-14T05:22:45;10.73;;;6.03;;
41689;SDS011;27372;42.658;23.256;2023-05-14T05:25:11;7.45;;;5.78;;
41689;SDS011;27372;42.658;23.256;2023-05-14T05:27:37;7.05;;;5.13;;
41689;SDS011;27372;42.658;23.256;2023-05-14T05:30:05;7.78;;;4.85;;
41689;SDS011;27372;42.658;23.256;2023-05-14T05:32:34;7.53;;;5.40;;
41689;SDS011;27372;42.658;23.256;2023-05-14T05:35:00;8.02;;;5.85;;
41689;SDS011;27372;42.658;23.256;2023-05-14T05:37:25;9.38;;;6.25;;
41689;SDS011;27372;42.658;23.256;2023-05-14T05:39:51;8.02;;;5.90;;
41689;SDS011;27372;42.658;23.256;2023-05-14T05:42:16;11.15;;;7.35;;
41689;SDS011;27372;42.658;23.256;2023-05-14T05:44:41;19.00;;;9.02;;
41689;SDS011;27372;42.658;23.256;2023-05-14T05:47:07;13.55;;;8.00;;
41689;SDS011;27372;42.658;23.256;2023-05-14T05:49:35;9.53;;;6.40;;
41689;SDS011;27372;42.658;23.256;2023-05-14T05:52:01;10.68;;;7.28;;
41689;SDS011;27372;42.658;23.256;2023-05-14T05:54:31;11.40;;;7.78;;
41689;SDS011;27372;42.658;23.256;2023-05-14T05:56:56;12.85;;;8.23;;
41689;SDS011;27372;42.658;23.256;2023-05-14T05:59:23;9.80;;;7.50;;
41689;SDS011;27372;42.658;23.256;2023-05-14T06:01:48;10.57;;;7.57;;
41689;SDS011;27372;42.658;23.256;2023-05-14T06:04:14;11.85;;;8.13;;
41689;SDS011;27372;42.658;23.256;2023-05-14T06:06:40;13.05;;;7.40;;
41689;SDS011;27372;42.658;23.256;2023-05-14T06:09:06;8.38;;;6.68;;
41689;SDS011;27372;42.658;23.256;2023-05-14T06:11:32;10.50;;;6.78;;
41689;SDS011;27372;42.658;23.256;2023-05-14T06:13:58;8.95;;;6.80;;
41689;SDS011;27372;42.658;23.256;2023-05-14T06:16:26;9.35;;;6.80;;
41689;SDS011;27372;42.658;23.256;2023-05-14T06:18:52;8.55;;;6.90;;
41689;SDS011;27372;42.658;23.256;2023-05-14T06:21:19;9.68;;;7.22;;
41689;SDS011;27372;42.658;23.256;2023-05-14T06:23:44;13.82;;;7.00;;
41689;SDS011;27372;42.658;23.256;2023-05-14T06:26:16;10.38;;;7.20;;
41689;SDS011;27372;42.658;23.256;2023-05-14T06:28:41;12.90;;;7.50;;
41689;SDS011;27372;42.658;23.256;2023-05-14T06:31:06;9.25;;;7.03;;
41689;SDS011;27372;42.658;23.256;2023-05-14T06:33:32;10.00;;;6.75;;
41689;SDS011;27372;42.658;23.256;2023-05-14T06:36:01;9.77;;;6.50;;
41689;SDS011;27372;42.658;23.256;2023-05-14T06:38:33;9.07;;;6.22;;
41689;SDS011;27372;42.658;23.256;2023-05-14T06:40:58;11.38;;;7.20;;
41689;SDS011;27372;42.658;23.256;2023-05-14T06:43:23;8.20;;;6.35;;
41689;SDS011;27372;42.658;23.256;2023-05-14T06:45:49;10.43;;;6.65;;
41689;SDS011;27372;42.658;23.256;2023-05-14T06:48:16;14.65;;;6.63;;
41689;SDS011;27372;42.658;23.256;2023-05-14T06:50:47;10.82;;;6.13;;
41689;SDS011;27372;42.658;23.256;2023-05-14T06:53:16;10.40;;;6.60;;
41689;SDS011;27372;42.658;23.256;2023-05-14T06:55:41;9.05;;;6.65;;
41689;SDS011;27372;42.658;23.256;2023-05-14T06:58:07;11.40;;;6.55;;
41689;SDS011;27372;42.658;23.256;2023-05-14T07:00:33;10.07;;;6.55;;
41689;SDS011;27372;42.658;23.256;2023-05-14T07:02:59;11.55;;;6.05;;
41689;SDS011;27372;42.658;23.256;2023-05-14T07:05:24;13.65;;;6.35;;
41689;SDS011;27372;42.658;23.256;2023-05-14T07:07:50;10.23;;;5.97;;
41689;SDS011;27372;42.658;23.256;2023-05-14T07:10:15;10.20;;;6.50;;
41689;SDS011;27372;42.658;23.256;2023-05-14T07:12:41;11.77;;;6.65;;
41689;SDS011;27372;42.658;23.256;2023-05-14T07:15:06;8.77;;;6.40;;
41689;SDS011;27372;42.658;23.256;2023-05-14T07:17:32;8.27;;;6.47;;
41689;SDS011;27372;42.658;23.256;2023-05-14T07:19:58;9.95;;;6.57;;
41689;SDS011;27372;42.658;23.256;2023-05-14T07:22:23;12.57;;;6.80;;
41689;SDS011;27372;42.658;23.256;2023-05-14T07:24:51;12.32;;;6.60;;
41689;SDS011;27372;42.658;23.256;2023-05-14T07:27:22;8.15;;;5.82;;
41689;SDS011;27372;42.658;23.256;2023-05-14T07:29:48;9.95;;;5.97;;
41689;SDS011;27372;42.658;23.256;2023-05-14T07:32:17;10.63;;;6.25;;
41689;SDS011;27372;42.658;23.256;2023-05-14T07:34:42;10.98;;;6.63;;
41689;SDS011;27372;42.658;23.256;2023-05-14T07:37:08;8.63;;;5.90;;
41689;SDS011;27372;42.658;23.256;2023-05-14T07:39:33;9.57;;;5.95;;
41689;SDS011;27372;42.658;23.256;2023-05-14T07:41:59;11.77;;;6.20;;
41689;SDS011;27372;42.658;23.256;2023-05-14T07:44:27;10.88;;;6.68;;
41689;SDS011;27372;42.658;23.256;2023-05-14T07:46:53;12.00;;;6.72;;
41689;SDS011;27372;42.658;23.256;2023-05-14T07:49:18;11.68;;;6.55;;
41689;SDS011;27372;42.658;23.256;2023-05-14T07:51:43;9.68;;;6.18;;
41689;SDS011;27372;42.658;23.256;2023-05-14T07:54:11;11.45;;;6.60;;
41689;SDS011;27372;42.658;23.256;2023-05-14T07:56:40;7.00;;;5.95;;
41689;SDS011;27372;42.658;23.256;2023-05-14T07:59:05;9.57;;;6.70;;
41689;SDS011;27372;42.658;23.256;2023-05-14T08:01:31;10.00;;;6.13;;
41689;SDS011;27372;42.658;23.256;2023-05-14T08:03:59;8.00;;;5.87;;
41689;SDS011;27372;42.658;23.256;2023-05-14T08:06:25;8.77;;;5.93;;
41689;SDS011;27372;42.658;23.256;2023-05-14T08:08:52;11.45;;;5.82;;
41689;SDS011;27372;42.658;23.256;2023-05-14T08:11:20;9.27;;;6.18;;
41689;SDS011;27372;42.658;23.256;2023-05-14T08:13:46;8.90;;;5.90;;
41689;SDS011;27372;42.658;23.256;2023-05-14T08:16:11;8.38;;;6.15;;
41689;SDS011;27372;42.658;23.256;2023-05-14T08:18:37;8.45;;;5.95;;
41689;SDS011;27372;42.658;23.256;2023-05-14T08:21:02;9.23;;;6.57;;
41689;SDS011;27372;42.658;23.256;2023-05-14T08:23:28;11.02;;;6.97;;
41689;SDS011;27372;42.658;23.256;2023-05-14T08:25:56;8.35;;;6.40;;
41689;SDS011;27372;42.658;23.256;2023-05-14T08:28:21;8.85;;;6.85;;
41689;SDS011;27372;42.658;23.256;2023-05-14T08:30:47;9.32;;;6.28;;
41689;SDS011;27372;42.658;23.256;2023-05-14T08:33:12;7.45;;;6.07;;
41689;SDS011;27372;42.658;23.256;2023-05-14T08:35:38;12.80;;;6.20;;
41689;SDS011;27372;42.658;23.256;2023-05-14T08:38:03;10.10;;;6.32;;
41689;SDS011;27372;42.658;23.256;2023-05-14T08:40:29;12.88;;;7.30;;
41689;SDS011;27372;42.658;23.256;2023-05-14T08:42:55;8.63;;;6.22;;
41689;SDS011;27372;42.658;23.256;2023-05-14T08:45:23;8.98;;;6.13;;
41689;SDS011;27372;42.658;23.256;2023-05-14T08:48:09;9.38;;;6.18;;
41689;SDS011;27372;42.658;23.256;2023-05-14T08:50:42;9.13;;;6.05;;
41689;SDS011;27372;42.658;23.256;2023-05-14T08:53:08;10.13;;;6.05;;
41689;SDS011;27372;42.658;23.256;2023-05-14T08:55:33;9.73;;;7.20;;
41689;SDS011;27372;42.658;23.256;2023-05-14T08:58:00;9.85;;;6.50;;
41689;SDS011;27372;42.658;23.256;2023-05-14T09:00:25;12.60;;;6.88;;
41689;SDS011;27372;42.658;23.256;2023-05-14T09:02:51;8.15;;;6.88;;
41689;SDS011;27372;42.658;23.256;2023-05-14T09:05:17;11.65;;;7.20;;
41689;SDS011;27372;42.658;23.256;2023-05-14T09:07:46;9.15;;;7.35;;
41689;SDS011;27372;42.658;23.256;2023-05-14T09:10:17;13.03;;;8.53;;
41689;SDS011;27372;42.658;23.256;2023-05-14T09:12:42;13.50;;;9.05;;
41689;SDS011;27372;42.658;23.256;2023-05-14T09:15:18;10.65;;;7.32;;
41689;SDS011;27372;42.658;23.256;2023-05-14T09:17:44;12.27;;;7.70;;
41689;SDS011;27372;42.658;23.256;2023-05-14T09:20:13;21.83;;;13.15;;
41689;SDS011;27372;42.658;23.256;2023-05-14T09:22:42;11.93;;;9.07;;
41689;SDS011;27372;42.658;23.256;2023-05-14T09:25:08;11.77;;;8.50;;
41689;SDS011;27372;42.658;23.256;2023-05-14T09:27:39;11.55;;;7.63;;
41689;SDS011;27372;42.658;23.256;2023-05-14T09:30:08;9.13;;;7.10;;
41689;SDS011;27372;42.658;23.256;2023-05-14T09:32:37;9.88;;;6.82;;
41689;SDS011;27372;42.658;23.256;2023-05-14T09:35:21;8.38;;;6.63;;
41689;SDS011;27372;42.658;23.256;2023-05-14T09:37:53;9.40;;;7.40;;
41689;SDS011;27372;42.658;23.256;2023-05-14T09:40:19;10.23;;;7.35;;
41689;SDS011;27372;42.658;23.256;2023-05-14T09:42:46;8.57;;;7.55;;
41689;SDS011;27372;42.658;23.256;2023-05-14T09:45:33;9.73;;;6.88;;
41689;SDS011;27372;42.658;23.256;2023-05-14T09:48:02;9.30;;;7.65;;
41689;SDS011;27372;42.658;23.256;2023-05-14T09:50:27;10.93;;;9.00;;
41689;SDS011;27372;42.658;23.256;2023-05-14T09:53:08;12.38;;;9.77;;
41689;SDS011;27372;42.658;23.256;2023-05-14T09:55:35;10.60;;;7.32;;
41689;SDS011;27372;42.658;23.256;2023-05-14T09:58:00;9.75;;;7.03;;
41689;SDS011;27372;42.658;23.256;2023-05-14T10:00:32;13.02;;;11.10;;
41689;SDS011;27372;42.658;23.256;2023-05-14T10:02:58;9.90;;;8.75;;
41689;SDS011;27372;42.658;23.256;2023-05-14T10:05:34;12.20;;;9.20;;
41689;SDS011;27372;42.658;23.256;2023-05-14T10:08:02;11.02;;;9.55;;
41689;SDS011;27372;42.658;23.256;2023-05-14T10:10:32;10.05;;;7.60;;
41689;SDS011;27372;42.658;23.256;2023-05-14T10:13:03;9.85;;;7.22;;
41689;SDS011;27372;42.658;23.256;2023-05-14T10:15:47;9.25;;;7.53;;
41689;SDS011;27372;42.658;23.256;2023-05-14T10:18:21;8.40;;;7.35;;
41689;SDS011;27372;42.658;23.256;2023-05-14T10:21:03;9.38;;;7.75;;
41689;SDS011;27372;42.658;23.256;2023-05-14T10:23:30;9.75;;;7.97;;
41689;SDS011;27372;42.658;23.256;2023-05-14T10:25:58;8.90;;;7.20;;
41689;SDS011;27372;42.658;23.256;2023-05-14T10:28:25;9.27;;;7.30;;
41689;SDS011;27372;42.658;23.256;2023-05-14T10:30:53;10.15;;;8.82;;
41689;SDS011;27372;42.658;23.256;2023-05-14T10:33:18;9.98;;;8.55;;
41689;SDS011;27372;42.658;23.256;2023-05-14T10:35:54;10.85;;;7.97;;
41689;SDS011;27372;42.658;23.256;2023-05-14T10:38:29;9.32;;;7.60;;
41689;SDS011;27372;42.658;23.256;2023-05-14T10:43:29;9.32;;;7.35;;
41689;SDS011;27372;42.658;23.256;2023-05-14T10:45:56;8.05;;;6.65;;
41689;SDS011;27372;42.658;23.256;2023-05-14T10:48:25;9.27;;;6.95;;
41689;SDS011;27372;42.658;23.256;2023-05-14T10:50:51;7.63;;;6.82;;
41689;SDS011;27372;42.658;23.256;2023-05-14T10:53:17;13.48;;;8.63;;
41689;SDS011;27372;42.658;23.256;2023-05-14T10:55:43;7.88;;;7.07;;
41689;SDS011;27372;42.658;23.256;2023-05-14T10:58:12;7.38;;;6.35;;
41689;SDS011;27372;42.658;23.256;2023-05-14T11:00:45;6.72;;;6.10;;
41689;SDS011;27372;42.658;23.256;2023-05-14T11:03:17;10.77;;;8.50;;
41689;SDS011;27372;42.658;23.256;2023-05-14T11:05:43;11.25;;;7.18;;
41689;SDS011;27372;42.658;23.256;2023-05-14T11:08:10;8.32;;;7.30;;
41689;SDS011;27372;42.658;23.256;2023-05-14T11:10:36;8.98;;;8.15;;
41689;SDS011;27372;42.658;23.256;2023-05-14T11:13:03;6.55;;;5.90;;
41689;SDS011;27372;42.658;23.256;2023-05-14T11:15:28;7.63;;;5.75;;
41689;SDS011;27372;42.658;23.256;2023-05-14T11:17:55;7.97;;;6.00;;
41689;SDS011;27372;42.658;23.256;2023-05-14T11:20:20;9.43;;;7.80;;
41689;SDS011;27372;42.658;23.256;2023-05-14T11:22:46;7.88;;;6.18;;
41689;SDS011;27372;42.658;23.256;2023-05-14T11:25:25;9.30;;;7.60;;
41689;SDS011;27372;42.658;23.256;2023-05-14T11:27:50;9.43;;;6.75;;
41689;SDS011;27372;42.658;23.256;2023-05-14T11:30:16;8.30;;;7.40;;
41689;SDS011;27372;42.658;23.256;2023-05-14T11:32:47;9.05;;;7.40;;
41689;SDS011;27372;42.658;23.256;2023-05-14T11:35:13;12.38;;;8.02;;
41689;SDS011;27372;42.658;23.256;2023-05-14T11:37:40;7.38;;;5.78;;
41689;SDS011;27372;42.658;23.256;2023-05-14T11:40:15;7.70;;;5.22;;
41689;SDS011;27372;42.658;23.256;2023-05-14T11:42:41;7.35;;;6.07;;
41689;SDS011;27372;42.658;23.256;2023-05-14T11:45:10;7.68;;;5.90;;
41689;SDS011;27372;42.658;23.256;2023-05-14T11:47:37;11.25;;;7.88;;
41689;SDS011;27372;42.658;23.256;2023-05-14T11:50:02;16.05;;;10.07;;
41689;SDS011;27372;42.658;23.256;2023-05-14T11:52:28;14.57;;;10.40;;
41689;SDS011;27372;42.658;23.256;2023-05-14T11:54:53;11.15;;;9.32;;
41689;SDS011;27372;42.658;23.256;2023-05-14T11:57:19;7.45;;;5.70;;
41689;SDS011;27372;42.658;23.256;2023-05-14T11:59:46;6.55;;;5.70;;
41689;SDS011;27372;42.658;23.256;2023-05-14T12:02:13;6.72;;;5.40;;
41689;SDS011;27372;42.658;23.256;2023-05-14T12:04:49;5.90;;;5.30;;
41689;SDS011;27372;42.658;23.256;2023-05-14T12:07:16;6.70;;;5.20;;
41689;SDS011;27372;42.658;23.256;2023-05-14T12:09:45;7.82;;;6.00;;
41689;SDS011;27372;42.658;23.256;2023-05-14T12:12:13;7.78;;;6.35;;
41689;SDS011;27372;42.658;23.256;2023-05-14T12:14:46;7.72;;;6.35;;
41689;SDS011;27372;42.658;23.256;2023-05-14T12:19:41;9.47;;;7.90;;
41689;SDS011;27372;42.658;23.256;2023-05-14T12:22:15;10.52;;;8.07;;
41689;SDS011;27372;42.658;23.256;2023-05-14T12:24:42;11.20;;;9.52;;
41689;SDS011;27372;42.658;23.256;2023-05-14T12:27:16;10.18;;;8.32;;
41689;SDS011;27372;42.658;23.256;2023-05-14T12:29:41;11.88;;;9.18;;
41689;SDS011;27372;42.658;23.256;2023-05-14T12:32:10;7.80;;;7.00;;
41689;SDS011;27372;42.658;23.256;2023-05-14T12:34:35;6.78;;;5.40;;
41689;SDS011;27372;42.658;23.256;2023-05-14T12:37:01;5.93;;;5.30;;
41689;SDS011;27372;42.658;23.256;2023-05-14T12:39:28;6.82;;;6.13;;
41689;SDS011;27372;42.658;23.256;2023-05-14T12:41:56;7.82;;;5.82;;
41689;SDS011;27372;42.658;23.256;2023-05-14T12:44:21;5.85;;;5.28;;
41689;SDS011;27372;42.658;23.256;2023-05-14T12:46:47;5.72;;;5.13;;
41689;SDS011;27372;42.658;23.256;2023-05-14T12:49:12;5.70;;;5.10;;
41689;SDS011;27372;42.658;23.256;2023-05-14T12:51:40;5.80;;;5.23;;
41689;SDS011;27372;42.658;23.256;2023-05-14T12:54:06;7.00;;;6.30;;
41689;SDS011;27372;42.658;23.256;2023-05-14T12:56:31;7.40;;;6.30;;
41689;SDS011;27372;42.658;23.256;2023-05-14T12:59:00;6.60;;;5.78;;
41689;SDS011;27372;42.658;23.256;2023-05-14T13:01:26;7.87;;;7.07;;
41689;SDS011;27372;42.658;23.256;2023-05-14T13:03:51;10.27;;;6.63;;
41689;SDS011;27372;42.658;23.256;2023-05-14T13:06:17;8.35;;;6.55;;
41689;SDS011;27372;42.658;23.256;2023-05-14T13:08:42;6.85;;;6.15;;
41689;SDS011;27372;42.658;23.256;2023-05-14T13:11:08;8.38;;;7.30;;
41689;SDS011;27372;42.658;23.256;2023-05-14T13:13:33;10.93;;;7.40;;
41689;SDS011;27372;42.658;23.256;2023-05-14T13:16:01;9.18;;;7.75;;
41689;SDS011;27372;42.658;23.256;2023-05-14T13:18:30;10.63;;;7.70;;
41689;SDS011;27372;42.658;23.256;2023-05-14T13:20:56;8.32;;;7.30;;
41689;SDS011;27372;42.658;23.256;2023-05-14T13:23:21;9.02;;;7.15;;
41689;SDS011;27372;42.658;23.256;2023-05-14T13:25:46;9.68;;;7.80;;
41689;SDS011;27372;42.658;23.256;2023-05-14T13:28:12;10.10;;;7.70;;
41689;SDS011;27372;42.658;23.256;2023-05-14T13:30:37;8.80;;;7.78;;
41689;SDS011;27372;42.658;23.256;2023-05-14T13:33:29;9.70;;;8.70;;
41689;SDS011;27372;42.658;23.256;2023-05-14T13:35:55;10.50;;;9.45;;
41689;SDS011;27372;42.658;23.256;2023-05-14T13:38:20;12.18;;;8.93;;
41689;SDS011;27372;42.658;23.256;2023-05-14T13:40:46;11.55;;;8.90;;
41689;SDS011;27372;42.658;23.256;2023-05-14T13:43:14;11.38;;;9.43;;
41689;SDS011;27372;42.658;23.256;2023-05-14T13:45:40;12.80;;;9.75;;
41689;SDS011;27372;42.658;23.256;2023-05-14T13:48:06;12.80;;;9.75;;
41689;SDS011;27372;42.658;23.256;2023-05-14T13:50:31;12.75;;;9.88;;
41689;SDS011;27372;42.658;23.256;2023-05-14T13:53:00;13.90;;;10.07;;
41689;SDS011;27372;42.658;23.256;2023-05-14T13:55:30;13.52;;;10.98;;
41689;SDS011;27372;42.658;23.256;2023-05-14T13:57:56;13.93;;;10.05;;
41689;SDS011;27372;42.658;23.256;2023-05-14T14:00:21;12.35;;;9.98;;
41689;SDS011;27372;42.658;23.256;2023-05-14T14:02:51;11.07;;;9.57;;
41689;SDS011;27372;42.658;23.256;2023-05-14T14:05:16;13.00;;;10.48;;
41689;SDS011;27372;42.658;23.256;2023-05-14T14:07:45;12.20;;;10.35;;
41689;SDS011;27372;42.658;23.256;2023-05-14T14:10:16;12.80;;;10.27;;
41689;SDS011;27372;42.658;23.256;2023-05-14T14:12:44;12.53;;;10.40;;
41689;SDS011;27372;42.658;23.256;2023-05-14T14:15:09;12.23;;;10.52;;
41689;SDS011;27372;42.658;23.256;2023-05-14T14:17:39;12.93;;;10.50;;
41689;SDS011;27372;42.658;23.256;2023-05-14T14:20:08;15.30;;;10.80;;
41689;SDS011;27372;42.658;23.256;2023-05-14T14:22:37;13.85;;;10.98;;
41689;SDS011;27372;42.658;23.256;2023-05-14T14:25:16;14.32;;;11.20;;
41689;SDS011;27372;42.658;23.256;2023-05-14T14:27:41;15.25;;;12.05;;
41689;SDS011;27372;42.658;23.256;2023-05-14T14:30:07;18.20;;;12.20;;
41689;SDS011;27372;42.658;23.256;2023-05-14T14:32:47;15.35;;;12.63;;
41689;SDS011;27372;42.658;23.256;2023-05-14T14:35:13;15.07;;;12.77;;
41689;SDS011;27372;42.658;23.256;2023-05-14T14:37:41;15.63;;;12.00;;